Time;durP1;ratioP1;P1;durP2;ratioP2;P2;SDS_P1;SDS_P2;PMS_P1;PMS_P2;Temp;Humidity;BMP_temperature;BMP_pressure;BME280_temperature;BME280_humidity;BME280_pressure;Samples;Min_cycle;Max_cycle;Signal;HPM_P1;HPM_P2
2023/02/18 00:01:46;;;;;;;;;;;;;;;;;;5032862;28;19947;-77
2023/02/18 00:04:11;;;;;;;;;;;;;;;;;;5034069;28;19909;-78
2023/02/18 00:06:37;;;;;;;;;;;;;;;;;;5035347;28;19996;-77
2023/02/18 00:09:03;;;;;;;;;;;;;;;;;;5048277;28;19944;-78
2023/02/18 00:11:28;;;;;;;;;;;;;;;;;;5031330;28;19952;-78
2023/02/18 00:13:53;;;;;;;;;;;;;;;;;;5049206;28;19979;-78
2023/02/18 00:16:18;;;;;;;;;;;;;;;;;;5039600;28;20249;-78
2023/02/18 00:18:43;;;;;;;;;;;;;;;;;;5030864;28;19913;-77
2023/02/18 00:21:08;;;;;;;;;;;;;;;;;;5034610;28;20356;-78
2023/02/18 00:23:34;;;;;;;;;;;;;;;;;;5048752;28;19917;-79
2023/02/18 00:25:59;;;;;;;;;;;;;;;;;;5048081;28;19924;-78
2023/02/18 00:28:24;;;;;;;;;;;;;;;;;;5048826;28;19917;-78
2023/02/18 00:30:49;;;;;;;;;;;;;;;;;;5048778;28;19913;-78
2023/02/18 00:33:14;;;;;;;;;;;;;;;;;;5034674;28;19924;-78
2023/02/18 00:35:39;;;;;;;;;;;;;;;;;;5047405;28;19913;-78
2023/02/18 00:38:04;;;;;;;;;;;;;;;;;;5049534;28;19913;-78
2023/02/18 00:40:29;;;;;;;;;;;;;;;;;;5046488;28;19949;-78
2023/02/18 00:42:55;;;;;;;;;;;;;;;;;;5021827;28;19921;-79
2023/02/18 00:45:20;;;;;;;;;;;;;;;;;;5033214;28;19960;-79
2023/02/18 00:47:45;;;;;;;;;;;;;;;;;;5034575;28;19913;-78
2023/02/18 00:50:10;;;;;;;;;;;;;;;;;;5048344;28;19944;-76
2023/02/18 00:52:35;;;;;;;;;;;;;;;;;;5049713;28;19913;-77
2023/02/18 00:55:00;;;;;;;;;;;;;;;;;;5048540;28;19914;-78
2023/02/18 00:57:26;;;;;;;;;;;;;;;;;;5033140;28;19967;-78
2023/02/18 00:59:51;;;;;;;;;;;;;;;;;;5043117;28;19917;-78
2023/02/18 01:02:16;;;;;;;;;;;;;;;;;;5047588;28;20371;-78
2023/02/18 01:04:41;;;;;;;;;;;;;;;;;;5044937;28;19913;-78
2023/02/18 01:07:09;;;;;;;;;;;;;;;;;;5029914;28;19913;-78
2023/02/18 01:09:34;;;;;;;;;;;;;;;;;;5048685;28;19917;-78
2023/02/18 01:11:59;;;;;;;;;;;;;;;;;;5044667;28;19920;-78
2023/02/18 01:14:24;;;;;;;;;;;;;;;;;;5032635;28;19913;-78
2023/02/18 01:16:49;;;;;;;;;;;;;;;;;;5031450;28;19954;-78
2023/02/18 01:19:14;;;;;;;;;;;;;;;;;;5032678;28;19928;-77
2023/02/18 01:21:40;;;;;;;;;;;;;;;;;;5032335;28;19913;-78
2023/02/18 01:24:05;;;;;;;;;;;;;;;;;;5033097;28;19917;-78
2023/02/18 01:26:30;;;;;;;;;;;;;;;;;;5027112;28;20435;-78
2023/02/18 01:28:55;;;;;;;;;;;;;;;;;;5032326;28;19917;-78
2023/02/18 01:31:20;;;;;;;;;;;;;;;;;;5046075;28;19913;-77
2023/02/18 01:33:45;;;;;;;;;;;;;;;;;;5033019;28;19924;-77
2023/02/18 01:36:10;;;;;;;;;;;;;;;;;;5047357;28;19940;-76
2023/02/18 01:38:35;;;;;;;;;;;;;;;;;;5047416;28;19959;-78
2023/02/18 01:41:01;;;;;;;;;;;;;;;;;;5030650;28;19921;-77
2023/02/18 01:43:26;;;;;;;;;;;;;;;;;;5047212;28;19925;-76
2023/02/18 01:45:51;;;;;;;;;;;;;;;;;;5032460;28;19913;-76
2023/02/18 01:48:16;;;;;;;;;;;;;;;;;;5032415;28;19920;-76
2023/02/18 01:50:41;;;;;;;;;;;;;;;;;;5032923;28;19975;-77
2023/02/18 01:53:06;;;;;;;;;;;;;;;;;;5046677;28;20436;-79
2023/02/18 01:55:32;;;;;;;;;;;;;;;;;;5033339;28;19913;-79
2023/02/18 01:57:57;;;;;;;;;;;;;;;;;;5029122;28;19913;-79
2023/02/18 02:00:22;;;;;;;;;;;;;;;;;;5047125;28;19992;-79
2023/02/18 02:02:47;;;;;;;;;;;;;;;;;;5030889;28;20256;-79
2023/02/18 02:05:12;;;;;;;;;;;;;;;;;;5031594;28;19943;-79
2023/02/18 02:07:37;;;;;;;;;;;;;;;;;;5047241;28;20356;-78
2023/02/18 02:10:02;;;;;;;;;;;;;;;;;;5031046;28;19913;-78
2023/02/18 02:12:28;;;;;;;;;;;;;;;;;;5046331;28;20007;-78
2023/02/18 02:14:53;;;;;;;;;;;;;;;;;;5046743;28;19921;-79
2023/02/18 02:17:18;;;;;;;;;;;;;;;;;;5047021;28;20336;-79
2023/02/18 02:19:43;;;;;;;;;;;;;;;;;;5030737;28;19917;-78
2023/02/18 02:22:09;;;;;;;;;;;;;;;;;;5031985;28;20007;-78
2023/02/18 02:24:34;;;;;;;;;;;;;;;;;;5045413;28;19956;-78
2023/02/18 02:26:59;;;;;;;;;;;;;;;;;;5031733;28;19939;-79
2023/02/18 02:29:24;;;;;;;;;;;;;;;;;;5047611;28;19917;-79
2023/02/18 02:31:49;;;;;;;;;;;;;;;;;;5030726;28;19921;-78
2023/02/18 02:34:14;;;;;;;;;;;;;;;;;;5032172;28;19919;-79
2023/02/18 02:36:39;;;;;;;;;;;;;;;;;;5039323;28;20439;-78
2023/02/18 02:39:05;;;;;;;;;;;;;;;;;;5031795;28;19948;-79
2023/02/18 02:41:30;;;;;;;;;;;;;;;;;;5040026;28;20280;-78
2023/02/18 02:43:55;;;;;;;;;;;;;;;;;;5047371;28;19974;-79
2023/02/18 02:46:20;;;;;;;;;;;;;;;;;;5031134;28;19960;-79
2023/02/18 02:48:46;;;;;;;;;;;;;;;;;;5032370;28;19913;-79
2023/02/18 02:51:11;;;;;;;;;;;;;;;;;;5031654;28;19913;-79
2023/02/18 02:53:36;;;;;;;;;;;;;;;;;;5031563;28;20004;-79
2023/02/18 02:56:01;;;;;;;;;;;;;;;;;;5030791;28;19917;-79
2023/02/18 02:58:26;;;;;;;;;;;;;;;;;;5046122;28;19996;-77
2023/02/18 03:00:51;;;;;;;;;;;;;;;;;;5047396;28;19916;-77
2023/02/18 03:03:16;;;;;;;;;;;;;;;;;;5029029;28;19913;-78
2023/02/18 03:05:42;;;;;;;;;;;;;;;;;;5047212;28;20367;-74
2023/02/18 03:08:07;;;;;;;;;;;;;;;;;;5030633;28;19913;-77
2023/02/18 03:10:32;;;;;;;;;;;;;;;;;;5046414;28;19909;-77
2023/02/18 03:12:57;;;;;;;;;;;;;;;;;;5029076;28;19917;-77
2023/02/18 03:15:22;;;;;;;;;;;;;;;;;;5043157;28;20391;-77
2023/02/18 03:17:47;;;;;;;;;;;;;;;;;;5023034;28;20348;-77
2023/02/18 03:20:12;;;;;;;;;;;;;;;;;;5031061;28;19964;-78
2023/02/18 03:22:37;;;;;;;;;;;;;;;;;;5045811;28;19928;-78
2023/02/18 03:25:03;;;;;;;;;;;;;;;;;;5046460;28;20399;-78
2023/02/18 03:27:28;;;;;;;;;;;;;;;;;;5030287;28;19921;-79
2023/02/18 03:29:54;;;;;;;;;;;;;;;;;;5031540;28;19924;-79
2023/02/18 03:32:19;;;;;;;;;;;;;;;;;;5030794;28;19913;-79
2023/02/18 03:34:44;;;;;;;;;;;;;;;;;;5046414;28;19914;-79
2023/02/18 03:37:09;;;;;;;;;;;;;;;;;;5048172;28;19922;-79
2023/02/18 03:39:34;;;;;;;;;;;;;;;;;;5034407;28;19913;-79
2023/02/18 03:41:59;;;;;;;;;;;;;;;;;;5049163;28;19921;-79
2023/02/18 03:44:24;;;;;;;;;;;;;;;;;;5034141;28;19914;-80
2023/02/18 03:46:50;;;;;;;;;;;;;;;;;;5050112;28;19920;-78
2023/02/18 03:49:15;;;;;;;;;;;;;;;;;;5021224;28;20007;-77
2023/02/18 03:51:40;;;;;;;;;;;;;;;;;;5048148;28;19913;-77
2023/02/18 03:54:05;;;;;;;;;;;;;;;;;;5047565;28;19936;-76
2023/02/18 03:56:30;;;;;;;;;;;;;;;;;;5048798;28;19963;-77
2023/02/18 03:58:55;;;;;;;;;;;;;;;;;;5034683;28;19913;-76
2023/02/18 04:01:20;;;;;;;;;;;;;;;;;;5033243;28;19913;-76
2023/02/18 04:03:46;;;;;;;;;;;;;;;;;;5033795;28;20298;-76
2023/02/18 04:06:11;;;;;;;;;;;;;;;;;;5032967;28;19920;-76
2023/02/18 04:08:36;;;;;;;;;;;;;;;;;;5031596;28;21750;-76
2023/02/18 04:11:01;;;;;;;;;;;;;;;;;;5045435;28;19929;-77
2023/02/18 04:13:26;;;;;;;;;;;;;;;;;;5042568;28;20012;-77
2023/02/18 04:15:51;;;;;;;;;;;;;;;;;;5030836;28;19913;-78
2023/02/18 04:18:16;;;;;;;;;;;;;;;;;;5034314;28;19921;-78
2023/02/18 04:20:42;;;;;;;;;;;;;;;;;;5032736;28;20372;-78
2023/02/18 04:23:07;;;;;;;;;;;;;;;;;;5046404;28;20368;-78
2023/02/18 04:25:32;;;;;;;;;;;;;;;;;;5046196;28;20624;-78
2023/02/18 04:27:57;;;;;;;;;;;;;;;;;;5034515;28;19913;-79
2023/02/18 04:30:22;;;;;;;;;;;;;;;;;;5048814;28;19913;-79
2023/02/18 04:32:48;;;;;;;;;;;;;;;;;;5033230;28;19963;-78
2023/02/18 04:35:13;;;;;;;;;;;;;;;;;;5032753;28;19917;-78
2023/02/18 04:37:38;;;;;;;;;;;;;;;;;;5048937;28;19920;-79
2023/02/18 04:40:03;;;;;;;;;;;;;;;;;;5047575;28;20399;-79
2023/02/18 04:42:28;;;;;;;;;;;;;;;;;;5030071;28;19944;-81
2023/02/18 04:44:53;;;;;;;;;;;;;;;;;;5044881;28;20008;-80
2023/02/18 04:47:18;;;;;;;;;;;;;;;;;;5022427;28;19925;-79
2023/02/18 04:49:44;;;;;;;;;;;;;;;;;;5048798;28;20303;-79
2023/02/18 04:52:09;;;;;;;;;;;;;;;;;;5041891;28;20284;-78
2023/02/18 04:54:34;;;;;;;;;;;;;;;;;;5032438;28;19967;-79
2023/02/18 04:56:59;;;;;;;;;;;;;;;;;;5032815;28;19909;-78
2023/02/18 04:59:24;;;;;;;;;;;;;;;;;;5039073;28;20375;-78
2023/02/18 05:01:49;;;;;;;;;;;;;;;;;;5030218;28;19959;-78
2023/02/18 05:04:16;;;;;;;;;;;;;;;;;;5048736;28;20043;-80
2023/02/18 05:06:41;;;;;;;;;;;;;;;;;;5048102;28;19913;-79
2023/02/18 05:09:07;;;;;;;;;;;;;;;;;;5048621;28;19924;-78
2023/02/18 05:11:32;;;;;;;;;;;;;;;;;;5031045;28;19913;-78
2023/02/18 05:13:57;;;;;;;;;;;;;;;;;;5032687;28;20273;-79
2023/02/18 05:16:22;;;;;;;;;;;;;;;;;;5030995;28;19952;-77
2023/02/18 05:18:47;;;;;;;;;;;;;;;;;;5032574;28;19925;-76
2023/02/18 05:21:12;;;;;;;;;;;;;;;;;;5033517;28;19920;-76
2023/02/18 05:23:37;;;;;;;;;;;;;;;;;;5033096;28;19917;-76
2023/02/18 05:26:02;;;;;;;;;;;;;;;;;;5047247;28;20326;-76
2023/02/18 05:28:28;;;;;;;;;;;;;;;;;;5031452;28;19917;-76
2023/02/18 05:30:53;;;;;;;;;;;;;;;;;;5032323;28;20328;-76
2023/02/18 05:33:18;;;;;;;;;;;;;;;;;;5032711;28;19914;-77
2023/02/18 05:35:43;;;;;;;;;;;;;;;;;;5032961;28;19917;-76
2023/02/18 05:38:09;;;;;;;;;;;;;;;;;;5031857;28;19917;-77
2023/02/18 05:40:34;;;;;;;;;;;;;;;;;;5029470;28;19913;-77
2023/02/18 05:42:59;;;;;;;;;;;;;;;;;;5019796;28;19921;-78
2023/02/18 05:45:24;;;;;;;;;;;;;;;;;;5040086;28;19967;-76
2023/02/18 05:47:49;;;;;;;;;;;;;;;;;;5023768;28;19913;-76
2023/02/18 05:50:14;;;;;;;;;;;;;;;;;;5032574;28;20375;-76
2023/02/18 05:52:39;;;;;;;;;;;;;;;;;;5044359;28;20368;-78
2023/02/18 05:55:06;;;;;;;;;;;;;;;;;;5030068;28;20397;-79
2023/02/18 05:57:31;;;;;;;;;;;;;;;;;;5047667;28;20315;-77
2023/02/18 05:59:57;;;;;;;;;;;;;;;;;;5031896;28;20396;-77
2023/02/18 06:02:22;;;;;;;;;;;;;;;;;;5045967;28;19917;-78
2023/02/18 06:04:47;;;;;;;;;;;;;;;;;;5048118;28;19918;-78
2023/02/18 06:07:12;;;;;;;;;;;;;;;;;;5031978;28;19913;-77
2023/02/18 06:09:37;;;;;;;;;;;;;;;;;;5046283;28;19923;-78
2023/02/18 06:12:02;;;;;;;;;;;;;;;;;;5046396;28;20020;-78
2023/02/18 06:14:27;;;;;;;;;;;;;;;;;;5047389;28;19980;-79
2023/02/18 06:16:53;;;;;;;;;;;;;;;;;;5029592;28;19943;-80
2023/02/18 06:19:18;;;;;;;;;;;;;;;;;;5037024;28;19914;-80
2023/02/18 06:21:43;;;;;;;;;;;;;;;;;;5032334;28;19913;-80
2023/02/18 06:24:08;;;;;;;;;;;;;;;;;;5043444;28;19922;-80
2023/02/18 06:26:33;;;;;;;;;;;;;;;;;;5028731;28;19948;-80
2023/02/18 06:28:58;;;;;;;;;;;;;;;;;;5032247;28;19913;-80
2023/02/18 06:31:24;;;;;;;;;;;;;;;;;;5047130;28;19921;-78
2023/02/18 06:33:49;;;;;;;;;;;;;;;;;;5030150;28;19913;-76
2023/02/18 06:36:14;;;;;;;;;;;;;;;;;;5047420;28;19992;-76
2023/02/18 06:38:39;;;;;;;;;;;;;;;;;;5044559;28;19910;-76
2023/02/18 06:41:04;;;;;;;;;;;;;;;;;;5022451;28;19921;-76
2023/02/18 06:43:29;;;;;;;;;;;;;;;;;;5031931;28;20016;-77
2023/02/18 06:45:54;;;;;;;;;;;;;;;;;;5044431;28;19960;-79
2023/02/18 06:48:20;;;;;;;;;;;;;;;;;;5047581;28;19913;-76
2023/02/18 06:50:45;;;;;;;;;;;;;;;;;;5030295;28;20008;-77
2023/02/18 06:53:10;;;;;;;;;;;;;;;;;;5045738;28;19924;-79
2023/02/18 06:55:35;;;;;;;;;;;;;;;;;;5047088;28;19916;-79
2023/02/18 06:58:00;;;;;;;;;;;;;;;;;;5047356;28;20016;-79
2023/02/18 07:00:25;;;;;;;;;;;;;;;;;;5043239;28;19948;-77
2023/02/18 07:02:50;;;;;;;;;;;;;;;;;;5046310;28;19924;-76
2023/02/18 07:05:15;;;;;;;;;;;;;;;;;;5030362;28;19966;-78
2023/02/18 07:07:41;;;;;;;;;;;;;;;;;;5032145;28;19920;-79
2023/02/18 07:10:06;;;;;;;;;;;;;;;;;;5029364;28;19928;-77
2023/02/18 07:12:31;;;;;;;;;;;;;;;;;;5033568;28;19920;-77
2023/02/18 07:14:56;;;;;;;;;;;;;;;;;;5034046;28;19963;-77
2023/02/18 07:17:21;;;;;;;;;;;;;;;;;;5035758;28;20275;-77
2023/02/18 07:19:46;;;;;;;;;;;;;;;;;;5034836;28;20398;-80
2023/02/18 07:22:11;;;;;;;;;;;;;;;;;;5034637;28;19924;-79
2023/02/18 07:24:36;;;;;;;;;;;;;;;;;;5032341;28;19929;-78
2023/02/18 07:27:02;;;;;;;;;;;;;;;;;;5029238;28;19913;-79
2023/02/18 07:29:27;;;;;;;;;;;;;;;;;;5058194;28;20255;-76
2023/02/18 07:31:53;;;;;;;;;;;;;;;;;;5036403;28;19914;-75
2023/02/18 07:34:18;;;;;;;;;;;;;;;;;;5033985;28;19920;-76
2023/02/18 07:36:43;;;;;;;;;;;;;;;;;;5050737;28;19919;-76
2023/02/18 07:39:08;;;;;;;;;;;;;;;;;;5046853;28;19914;-76
2023/02/18 07:41:33;;;;;;;;;;;;;;;;;;5041036;28;20007;-76
2023/02/18 07:43:58;;;;;;;;;;;;;;;;;;5056250;28;19917;-77
2023/02/18 07:46:23;;;;;;;;;;;;;;;;;;5050824;28;19917;-76
2023/02/18 07:48:49;;;;;;;;;;;;;;;;;;5042632;28;20030;-77
2023/02/18 07:51:14;;;;;;;;;;;;;;;;;;5046714;28;19921;-76
2023/02/18 07:53:39;;;;;;;;;;;;;;;;;;5060696;28;19913;-76
2023/02/18 07:56:04;;;;;;;;;;;;;;;;;;5042274;28;19944;-75
2023/02/18 07:58:29;;;;;;;;;;;;;;;;;;5056682;28;20386;-76
2023/02/18 08:00:54;;;;;;;;;;;;;;;;;;5038724;28;20372;-76
2023/02/18 08:03:20;;;;;;;;;;;;;;;;;;5055176;28;20066;-75
2023/02/18 08:05:45;;;;;;;;;;;;;;;;;;5042909;28;19932;-76
2023/02/18 08:08:10;;;;;;;;;;;;;;;;;;5053906;28;19913;-75
2023/02/18 08:10:35;;;;;;;;;;;;;;;;;;5035261;28;19930;-77
2023/02/18 08:13:00;;;;;;;;;;;;;;;;;;5035762;28;19913;-77
2023/02/18 08:15:25;;;;;;;;;;;;;;;;;;5037832;28;20123;-77
2023/02/18 08:17:50;;;;;;;;;;;;;;;;;;5054418;28;19951;-77
2023/02/18 08:20:15;;;;;;;;;;;;;;;;;;5053840;28;20399;-77
2023/02/18 08:22:41;;;;;;;;;;;;;;;;;;5036572;28;20360;-75
2023/02/18 08:25:06;;;;;;;;;;;;;;;;;;5038380;28;19928;-76
2023/02/18 08:27:31;;;;;;;;;;;;;;;;;;5035582;28;19917;-75
2023/02/18 08:29:56;;;;;;;;;;;;;;;;;;5034922;28;19924;-75
2023/02/18 08:32:21;;;;;;;;;;;;;;;;;;5043023;28;19920;-74
2023/02/18 08:34:47;;;;;;;;;;;;;;;;;;5051010;28;20367;-75
2023/02/18 08:37:12;;;;;;;;;;;;;;;;;;5030599;28;19914;-75
2023/02/18 08:39:37;;;;;;;;;;;;;;;;;;5034678;28;19937;-76
2023/02/18 08:42:02;;;;;;;;;;;;;;;;;;5046333;28;20352;-76
2023/02/18 08:44:27;;;;;;;;;;;;;;;;;;5034212;28;19913;-79
2023/02/18 08:46:52;;;;;;;;;;;;;;;;;;5033960;28;19913;-74
2023/02/18 08:49:19;;;;;;;;;;;;;;;;;;5028641;28;19917;-74
2023/02/18 08:51:44;;;;;;;;;;;;;;;;;;5048413;28;20264;-74
2023/02/18 08:54:10;;;;;;;;;;;;;;;;;;5033807;28;20287;-75
2023/02/18 08:56:35;;;;;;;;;;;;;;;;;;5047908;28;19924;-76
2023/02/18 08:59:00;;;;;;;;;;;;;;;;;;5021546;28;19913;-75
2023/02/18 09:01:25;;;;;;;;;;;;;;;;;;5047826;28;20035;-74
2023/02/18 09:03:50;;;;;;;;;;;;;;;;;;5049232;28;19917;-74
2023/02/18 09:06:15;;;;;;;;;;;;;;;;;;5033274;28;19996;-74
2023/02/18 09:08:40;;;;;;;;;;;;;;;;;;5032640;28;19914;-74
2023/02/18 09:11:06;;;;;;;;;;;;;;;;;;5028736;28;19917;-75
2023/02/18 09:13:31;;;;;;;;;;;;;;;;;;5032890;28;19921;-74
2023/02/18 09:15:57;;;;;;;;;;;;;;;;;;5033414;28;19913;-76
2023/02/18 09:18:22;;;;;;;;;;;;;;;;;;5043083;28;19921;-76
2023/02/18 09:20:47;;;;;;;;;;;;;;;;;;5028510;28;20334;-76
2023/02/18 09:23:12;;;;;;;;;;;;;;;;;;5043001;28;19917;-76
2023/02/18 09:25:37;;;;;;;;;;;;;;;;;;5032513;28;20535;-76
2023/02/18 09:28:02;;;;;;;;;;;;;;;;;;5047634;28;20425;-76
2023/02/18 09:30:27;;;;;;;;;;;;;;;;;;5032033;28;19956;-76
2023/02/18 09:32:52;;;;;;;;;;;;;;;;;;5047924;28;20284;-76
2023/02/18 09:35:18;;;;;;;;;;;;;;;;;;5031616;28;19917;-75
2023/02/18 09:37:43;;;;;;;;;;;;;;;;;;5031944;28;19962;-75
2023/02/18 09:40:08;;;;;;;;;;;;;;;;;;5044160;28;19967;-75
2023/02/18 09:42:33;;;;;;;;;;;;;;;;;;5029106;28;19928;-75
2023/02/18 09:44:58;;;;;;;;;;;;;;;;;;5031467;28;19917;-75
2023/02/18 09:47:23;;;;;;;;;;;;;;;;;;5031890;28;20652;-75
2023/02/18 09:49:48;;;;;;;;;;;;;;;;;;5032172;28;20019;-75
2023/02/18 09:52:14;;;;;;;;;;;;;;;;;;5030967;28;20331;-79
2023/02/18 09:54:39;;;;;;;;;;;;;;;;;;5039203;28;20015;-77
2023/02/18 09:57:04;;;;;;;;;;;;;;;;;;5047725;28;19917;-77
2023/02/18 09:59:29;;;;;;;;;;;;;;;;;;5027603;28;19920;-76
2023/02/18 10:01:55;;;;;;;;;;;;;;;;;;5047600;28;20422;-75
2023/02/18 10:04:22;;;;;;;;;;;;;;;;;;5031522;28;19913;-75
2023/02/18 10:06:47;;;;;;;;;;;;;;;;;;5031531;28;20097;-74
2023/02/18 10:09:13;;;;;;;;;;;;;;;;;;5040639;28;20051;-75
2023/02/18 10:11:38;;;;;;;;;;;;;;;;;;5026840;28;20520;-75
2023/02/18 10:14:03;;;;;;;;;;;;;;;;;;5047173;28;19967;-75
2023/02/18 10:16:28;;;;;;;;;;;;;;;;;;5031008;28;19920;-75
2023/02/18 10:18:53;;;;;;;;;;;;;;;;;;5028628;28;19924;-76
2023/02/18 10:21:18;;;;;;;;;;;;;;;;;;5029484;28;19921;-76
2023/02/18 10:23:44;;;;;;;;;;;;;;;;;;5037917;28;19964;-75
2023/02/18 10:26:09;;;;;;;;;;;;;;;;;;5030374;28;20338;-75
2023/02/18 10:28:34;;;;;;;;;;;;;;;;;;5032113;28;19971;-75
2023/02/18 10:30:59;;;;;;;;;;;;;;;;;;5028280;28;19921;-75
2023/02/18 10:33:24;;;;;;;;;;;;;;;;;;5043671;28;20339;-75
2023/02/18 10:35:49;;;;;;;;;;;;;;;;;;5041445;28;20406;-75
2023/02/18 10:38:15;;;;;;;;;;;;;;;;;;5024215;28;20268;-74
2023/02/18 10:40:40;;;;;;;;;;;;;;;;;;5029754;28;19914;-74
2023/02/18 10:43:05;;;;;;;;;;;;;;;;;;5028071;28;19924;-75
2023/02/18 10:45:30;;;;;;;;;;;;;;;;;;5026683;28;20011;-75
2023/02/18 10:47:55;;;;;;;;;;;;;;;;;;5043643;28;19912;-75
2023/02/18 10:50:21;;;;;;;;;;;;;;;;;;5025005;28;19914;-75
2023/02/18 10:52:46;;;;;;;;;;;;;;;;;;5030544;28;19913;-76
2023/02/18 10:55:11;;;;;;;;;;;;;;;;;;5025069;28;19913;-76
2023/02/18 10:57:36;;;;;;;;;;;;;;;;;;5045978;28;19913;-76
2023/02/18 11:00:09;;;;;;;;;;;;;;;;;;5027129;28;20284;-74
2023/02/18 11:02:34;;;;;;;;;;;;;;;;;;5029056;28;19928;-75
2023/02/18 11:05:00;;;;;;;;;;;;;;;;;;5031075;28;19913;-76
2023/02/18 11:07:25;;;;;;;;;;;;;;;;;;5048264;28;19913;-75
2023/02/18 11:09:50;;;;;;;;;;;;;;;;;;5041282;28;19936;-75
2023/02/18 11:12:16;;;;;;;;;;;;;;;;;;5028725;28;20299;-75
2023/02/18 11:14:41;;;;;;;;;;;;;;;;;;5031052;28;20440;-75
2023/02/18 11:17:07;;;;;;;;;;;;;;;;;;5027163;28;19914;-76
2023/02/18 11:19:32;;;;;;;;;;;;;;;;;;5027955;28;19917;-76
2023/02/18 11:21:58;;;;;;;;;;;;;;;;;;5030809;28;19917;-76
2023/02/18 11:24:23;;;;;;;;;;;;;;;;;;5046051;28;19975;-75
2023/02/18 11:26:48;;;;;;;;;;;;;;;;;;5022706;28;19917;-76
2023/02/18 11:29:13;;;;;;;;;;;;;;;;;;5028911;28;20345;-75
2023/02/18 11:31:38;;;;;;;;;;;;;;;;;;5029787;28;19979;-76
2023/02/18 11:34:04;;;;;;;;;;;;;;;;;;5046860;28;19917;-76
2023/02/18 11:36:29;;;;;;;;;;;;;;;;;;5031522;28;20387;-77
2023/02/18 11:38:54;;;;;;;;;;;;;;;;;;5028008;28;19963;-76
2023/02/18 11:41:19;;;;;;;;;;;;;;;;;;5026826;28;19961;-76
2023/02/18 11:43:44;;;;;;;;;;;;;;;;;;5030223;28;19927;-75
2023/02/18 11:46:10;;;;;;;;;;;;;;;;;;5035346;28;19917;-75
2023/02/18 11:48:35;;;;;;;;;;;;;;;;;;5041041;28;19917;-77
2023/02/18 11:51:00;;;;;;;;;;;;;;;;;;5022549;28;20283;-77
2023/02/18 11:53:25;;;;;;;;;;;;;;;;;;5044467;28;19917;-76
2023/02/18 11:55:50;;;;;;;;;;;;;;;;;;5026737;28;19971;-76
2023/02/18 11:58:15;;;;;;;;;;;;;;;;;;5025828;28;19921;-75
2023/02/18 12:00:40;;;;;;;;;;;;;;;;;;5033950;28;19913;-76
2023/02/18 12:03:05;;;;;;;;;;;;;;;;;;5036899;28;19979;-75
2023/02/18 12:05:31;;;;;;;;;;;;;;;;;;5048920;28;19913;-75
2023/02/18 12:07:56;;;;;;;;;;;;;;;;;;5034629;28;19916;-75
2023/02/18 12:10:21;;;;;;;;;;;;;;;;;;5032741;28;19920;-75
2023/02/18 12:12:46;;;;;;;;;;;;;;;;;;5029759;28;19921;-76
2023/02/18 12:15:11;;;;;;;;;;;;;;;;;;5032196;28;19924;-76
2023/02/18 12:17:36;;;;;;;;;;;;;;;;;;5034153;28;19915;-76
2023/02/18 12:20:01;;;;;;;;;;;;;;;;;;5024708;28;20300;-76
2023/02/18 12:22:27;;;;;;;;;;;;;;;;;;5034246;28;20322;-76
2023/02/18 12:24:52;;;;;;;;;;;;;;;;;;5048053;28;19928;-75
2023/02/18 12:27:17;;;;;;;;;;;;;;;;;;5033966;28;20221;-75
2023/02/18 12:29:43;;;;;;;;;;;;;;;;;;5034061;28;19913;-75
2023/02/18 12:32:08;;;;;;;;;;;;;;;;;;5033754;28;19917;-76
2023/02/18 12:34:34;;;;;;;;;;;;;;;;;;5047045;28;19921;-75
2023/02/18 12:36:59;;;;;;;;;;;;;;;;;;5032361;28;19917;-75
2023/02/18 12:39:24;;;;;;;;;;;;;;;;;;5039976;28;19967;-77
2023/02/18 12:41:49;;;;;;;;;;;;;;;;;;5029276;28;20012;-74
2023/02/18 12:44:14;;;;;;;;;;;;;;;;;;5028427;28;19970;-75
2023/02/18 12:46:39;;;;;;;;;;;;;;;;;;5033750;28;20399;-76
2023/02/18 12:49:05;;;;;;;;;;;;;;;;;;5033072;28;19913;-76
2023/02/18 12:51:31;;;;;;;;;;;;;;;;;;5033432;28;19920;-76
2023/02/18 12:53:57;;;;;;;;;;;;;;;;;;5032316;28;19913;-76
2023/02/18 12:56:22;;;;;;;;;;;;;;;;;;5024730;28;19940;-77
2023/02/18 12:58:47;;;;;;;;;;;;;;;;;;5029416;28;19913;-78
2023/02/18 13:01:12;;;;;;;;;;;;;;;;;;5046753;28;19920;-74
2023/02/18 13:03:37;;;;;;;;;;;;;;;;;;5049156;28;20430;-74
2023/02/18 13:06:02;;;;;;;;;;;;;;;;;;5028864;28;19964;-75
2023/02/18 13:08:27;;;;;;;;;;;;;;;;;;5034125;28;19917;-75
2023/02/18 13:10:52;;;;;;;;;;;;;;;;;;5031159;28;19995;-75
2023/02/18 13:13:18;;;;;;;;;;;;;;;;;;5023756;28;19921;-76
2023/02/18 13:15:43;;;;;;;;;;;;;;;;;;5032567;28;19921;-75
2023/02/18 13:18:08;;;;;;;;;;;;;;;;;;5036285;28;19960;-74
2023/02/18 13:20:33;;;;;;;;;;;;;;;;;;5046943;28;19920;-75
2023/02/18 13:22:58;;;;;;;;;;;;;;;;;;5048648;28;19917;-75
2023/02/18 13:25:23;;;;;;;;;;;;;;;;;;5030401;28;19924;-74
2023/02/18 13:27:48;;;;;;;;;;;;;;;;;;5031927;28;19996;-74
2023/02/18 13:30:14;;;;;;;;;;;;;;;;;;5031642;28;19925;-75
2023/02/18 13:32:39;;;;;;;;;;;;;;;;;;5048506;28;19913;-75
2023/02/18 13:35:04;;;;;;;;;;;;;;;;;;5047856;28;19913;-75
2023/02/18 13:37:29;;;;;;;;;;;;;;;;;;5032411;28;20379;-75
2023/02/18 13:39:54;;;;;;;;;;;;;;;;;;5033036;28;20454;-75
2023/02/18 13:42:19;;;;;;;;;;;;;;;;;;5037141;28;19920;-76
2023/02/18 13:44:44;;;;;;;;;;;;;;;;;;5031944;28;20025;-76
2023/02/18 13:47:10;;;;;;;;;;;;;;;;;;5032120;28;19916;-75
2023/02/18 13:49:35;;;;;;;;;;;;;;;;;;5029488;28;19936;-76
2023/02/18 13:52:00;;;;;;;;;;;;;;;;;;5038783;28;20514;-76
2023/02/18 13:54:25;;;;;;;;;;;;;;;;;;5037621;28;19914;-76
2023/02/18 13:56:50;;;;;;;;;;;;;;;;;;5024030;28;19913;-76
2023/02/18 13:59:15;;;;;;;;;;;;;;;;;;5046809;28;19992;-75
2023/02/18 14:01:40;;;;;;;;;;;;;;;;;;5030353;28;19945;-74
2023/02/18 14:04:06;;;;;;;;;;;;;;;;;;5030892;28;19938;-76
2023/02/18 14:06:31;;;;;;;;;;;;;;;;;;5030916;28;19947;-77
2023/02/18 14:08:56;;;;;;;;;;;;;;;;;;5048320;28;19913;-77
2023/02/18 14:11:21;;;;;;;;;;;;;;;;;;5028400;28;19917;-75
2023/02/18 14:13:46;;;;;;;;;;;;;;;;;;5030479;28;19960;-77
2023/02/18 14:16:12;;;;;;;;;;;;;;;;;;5028089;28;20372;-77
2023/02/18 14:18:37;;;;;;;;;;;;;;;;;;5032086;28;19909;-75
2023/02/18 14:21:02;;;;;;;;;;;;;;;;;;5027137;28;19921;-77
2023/02/18 14:23:27;;;;;;;;;;;;;;;;;;5029378;28;19924;-77
2023/02/18 14:25:52;;;;;;;;;;;;;;;;;;5034163;28;19971;-76
2023/02/18 14:28:17;;;;;;;;;;;;;;;;;;5031553;28;19962;-79
2023/02/18 14:30:42;;;;;;;;;;;;;;;;;;5030542;28;19924;-76
2023/02/18 14:33:07;;;;;;;;;;;;;;;;;;5047906;28;19913;-78
2023/02/18 14:35:33;;;;;;;;;;;;;;;;;;5030102;28;20047;-78
2023/02/18 14:37:58;;;;;;;;;;;;;;;;;;5031636;28;19914;-76
2023/02/18 14:40:23;;;;;;;;;;;;;;;;;;5029455;28;20272;-79
2023/02/18 14:42:48;;;;;;;;;;;;;;;;;;5043319;28;19917;-77
2023/02/18 14:45:13;;;;;;;;;;;;;;;;;;5030720;28;19916;-78
2023/02/18 14:47:38;;;;;;;;;;;;;;;;;;5024028;28;19988;-79
2023/02/18 14:50:04;;;;;;;;;;;;;;;;;;5042169;28;19917;-79
2023/02/18 14:52:29;;;;;;;;;;;;;;;;;;5032046;28;20387;-78
2023/02/18 14:54:54;;;;;;;;;;;;;;;;;;5021731;28;19917;-79
2023/02/18 14:57:20;;;;;;;;;;;;;;;;;;5046582;28;19914;-80
2023/02/18 14:59:45;;;;;;;;;;;;;;;;;;5046005;28;19976;-78
2023/02/18 15:02:10;;;;;;;;;;;;;;;;;;5029546;28;19955;-79
2023/02/18 15:04:35;;;;;;;;;;;;;;;;;;5043484;28;19963;-77
2023/02/18 15:07:01;;;;;;;;;;;;;;;;;;5035340;28;19999;-78
2023/02/18 15:09:26;;;;;;;;;;;;;;;;;;5028061;28;19913;-78
2023/02/18 15:11:51;;;;;;;;;;;;;;;;;;5028530;28;19914;-78
2023/02/18 15:14:16;;;;;;;;;;;;;;;;;;5046536;28;19922;-78
2023/02/18 15:16:41;;;;;;;;;;;;;;;;;;5050978;28;20325;-80
2023/02/18 15:19:06;;;;;;;;;;;;;;;;;;5047133;28;20396;-77
2023/02/18 15:21:31;;;;;;;;;;;;;;;;;;5043864;28;19920;-78
2023/02/18 15:23:57;;;;;;;;;;;;;;;;;;5042338;28;19927;-76
2023/02/18 15:26:22;;;;;;;;;;;;;;;;;;5048381;28;19920;-77
2023/02/18 15:28:47;;;;;;;;;;;;;;;;;;5036797;28;19919;-77
2023/02/18 15:31:12;;;;;;;;;;;;;;;;;;5029532;28;19913;-78
2023/02/18 15:33:37;;;;;;;;;;;;;;;;;;5042506;28;19919;-77
2023/02/18 15:36:03;;;;;;;;;;;;;;;;;;5033056;28;19913;-78
2023/02/18 15:38:28;;;;;;;;;;;;;;;;;;5050630;28;19943;-77
2023/02/18 15:40:53;;;;;;;;;;;;;;;;;;5028915;28;20036;-76
2023/02/18 15:43:18;;;;;;;;;;;;;;;;;;5031962;28;19917;-77
2023/02/18 15:45:43;;;;;;;;;;;;;;;;;;5025395;28;19961;-77
2023/02/18 15:48:08;;;;;;;;;;;;;;;;;;5029709;28;20023;-77
2023/02/18 15:50:34;;;;;;;;;;;;;;;;;;5032189;28;19917;-77
2023/02/18 15:52:59;;;;;;;;;;;;;;;;;;5039826;28;19919;-76
2023/02/18 15:55:24;;;;;;;;;;;;;;;;;;5058862;28;19917;-76
2023/02/18 15:57:49;;;;;;;;;;;;;;;;;;5033294;28;19959;-77
2023/02/18 16:00:14;;;;;;;;;;;;;;;;;;5027793;28;19924;-76
2023/02/18 16:02:40;;;;;;;;;;;;;;;;;;5039777;28;20287;-76
2023/02/18 16:05:05;;;;;;;;;;;;;;;;;;5024789;28;19953;-77
2023/02/18 16:07:30;;;;;;;;;;;;;;;;;;5041249;28;19989;-79
2023/02/18 16:09:56;;;;;;;;;;;;;;;;;;5035095;28;19913;-77
2023/02/18 16:12:21;;;;;;;;;;;;;;;;;;5048980;28;19913;-79
2023/02/18 16:14:46;;;;;;;;;;;;;;;;;;5042301;28;20100;-76
2023/02/18 16:17:11;;;;;;;;;;;;;;;;;;5040887;28;19916;-77
2023/02/18 16:19:36;;;;;;;;;;;;;;;;;;5049126;28;20287;-75
2023/02/18 16:22:01;;;;;;;;;;;;;;;;;;5046194;28;19935;-77
2023/02/18 16:24:26;;;;;;;;;;;;;;;;;;5033590;28;20364;-78
2023/02/18 16:26:52;;;;;;;;;;;;;;;;;;5046964;28;19914;-78
2023/02/18 16:29:17;;;;;;;;;;;;;;;;;;5049681;28;19940;-77
2023/02/18 16:31:42;;;;;;;;;;;;;;;;;;5059308;28;19912;-78